sensor_id;sensor_type;location;lat;lon;timestamp;temperature;humidity
53454;DHT22;49404;50.472;6.954;2022-08-19T00:02:10;23.00;65.60
53454;DHT22;49404;50.472;6.954;2022-08-19T00:04:39;22.90;65.70
53454;DHT22;49404;50.472;6.954;2022-08-19T00:07:06;22.90;65.70
53454;DHT22;49404;50.472;6.954;2022-08-19T00:09:32;22.90;65.70
53454;DHT22;49404;50.472;6.954;2022-08-19T00:11:58;22.80;65.60
53454;DHT22;49404;50.472;6.954;2022-08-19T00:14:28;22.90;65.80
53454;DHT22;49404;50.472;6.954;2022-08-19T00:17:06;22.80;65.40
53454;DHT22;49404;50.472;6.954;2022-08-19T00:19:33;22.90;65.40
53454;DHT22;49404;50.472;6.954;2022-08-19T00:21:59;22.90;65.40
53454;DHT22;49404;50.472;6.954;2022-08-19T00:24:28;22.80;65.30
53454;DHT22;49404;50.472;6.954;2022-08-19T00:26:54;22.80;65.40
53454;DHT22;49404;50.472;6.954;2022-08-19T00:29:21;22.80;65.40
53454;DHT22;49404;50.472;6.954;2022-08-19T00:31:51;22.80;65.40
53454;DHT22;49404;50.472;6.954;2022-08-19T00:34:22;22.80;65.40
53454;DHT22;49404;50.472;6.954;2022-08-19T00:36:51;22.80;65.20
53454;DHT22;49404;50.472;6.954;2022-08-19T00:39:17;22.80;65.20
53454;DHT22;49404;50.472;6.954;2022-08-19T00:41:44;22.80;65.10
53454;DHT22;49404;50.472;6.954;2022-08-19T00:44:20;22.80;65.10
53454;DHT22;49404;50.472;6.954;2022-08-19T00:46:48;22.80;65.30
53454;DHT22;49404;50.472;6.954;2022-08-19T00:51:57;22.80;65.20
53454;DHT22;49404;50.472;6.954;2022-08-19T00:54:31;22.70;65.00
53454;DHT22;49404;50.472;6.954;2022-08-19T00:56:58;22.70;65.10
53454;DHT22;49404;50.472;6.954;2022-08-19T00:59:29;22.80;65.20
53454;DHT22;49404;50.472;6.954;2022-08-19T01:01:54;22.80;65.10
53454;DHT22;49404;50.472;6.954;2022-08-19T01:04:20;22.80;65.00
53454;DHT22;49404;50.472;6.954;2022-08-19T01:06:46;22.80;65.00
53454;DHT22;49404;50.472;6.954;2022-08-19T01:09:11;22.80;64.80
53454;DHT22;49404;50.472;6.954;2022-08-19T01:11:44;22.70;65.00
53454;DHT22;49404;50.472;6.954;2022-08-19T01:14:18;22.80;65.00
53454;DHT22;49404;50.472;6.954;2022-08-19T01:16:45;22.80;65.30
53454;DHT22;49404;50.472;6.954;2022-08-19T01:19:33;22.80;65.40
53454;DHT22;49404;50.472;6.954;2022-08-19T01:24:52;22.60;65.90
53454;DHT22;49404;50.472;6.954;2022-08-19T01:27:19;22.60;65.60
53454;DHT22;49404;50.472;6.954;2022-08-19T01:29:46;22.70;65.60
53454;DHT22;49404;50.472;6.954;2022-08-19T01:32:16;22.60;65.80
53454;DHT22;49404;50.472;6.954;2022-08-19T01:34:42;22.60;65.90
53454;DHT22;49404;50.472;6.954;2022-08-19T01:37:18;22.60;65.90
53454;DHT22;49404;50.472;6.954;2022-08-19T01:39:44;22.60;66.40
53454;DHT22;49404;50.472;6.954;2022-08-19T01:42:10;22.60;66.40
53454;DHT22;49404;50.472;6.954;2022-08-19T01:44:40;22.50;66.50
53454;DHT22;49404;50.472;6.954;2022-08-19T01:47:09;22.50;66.70
53454;DHT22;49404;50.472;6.954;2022-08-19T01:49:40;22.40;67.20
53454;DHT22;49404;50.472;6.954;2022-08-19T01:52:06;22.40;67.70
53454;DHT22;49404;50.472;6.954;2022-08-19T01:54:32;22.30;67.70
53454;DHT22;49404;50.472;6.954;2022-08-19T01:57:07;22.30;68.00
53454;DHT22;49404;50.472;6.954;2022-08-19T01:59:34;22.20;68.00
53454;DHT22;49404;50.472;6.954;2022-08-19T02:02:05;22.10;67.80
53454;DHT22;49404;50.472;6.954;2022-08-19T02:04:34;22.10;67.80
53454;DHT22;49404;50.472;6.954;2022-08-19T02:07:00;22.10;67.80
53454;DHT22;49404;50.472;6.954;2022-08-19T02:09:33;22.10;67.50
53454;DHT22;49404;50.472;6.954;2022-08-19T02:11:59;22.20;67.70
53454;DHT22;49404;50.472;6.954;2022-08-19T02:14:36;22.20;67.70
53454;DHT22;49404;50.472;6.954;2022-08-19T02:17:05;22.20;67.70
53454;DHT22;49404;50.472;6.954;2022-08-19T02:19:33;22.20;67.60
53454;DHT22;49404;50.472;6.954;2022-08-19T02:21:59;22.20;67.60
53454;DHT22;49404;50.472;6.954;2022-08-19T02:24:31;22.10;67.30
53454;DHT22;49404;50.472;6.954;2022-08-19T02:26:57;22.20;67.70
53454;DHT22;49404;50.472;6.954;2022-08-19T02:29:27;22.10;67.50
53454;DHT22;49404;50.472;6.954;2022-08-19T02:31:55;22.10;67.50
53454;DHT22;49404;50.472;6.954;2022-08-19T02:34:29;22.10;67.60
53454;DHT22;49404;50.472;6.954;2022-08-19T02:36:54;22.10;67.50
53454;DHT22;49404;50.472;6.954;2022-08-19T02:39:20;22.10;67.50
53454;DHT22;49404;50.472;6.954;2022-08-19T02:41:45;22.10;68.40
53454;DHT22;49404;50.472;6.954;2022-08-19T02:44:16;22.00;69.10
53454;DHT22;49404;50.472;6.954;2022-08-19T02:46:42;21.90;69.30
53454;DHT22;49404;50.472;6.954;2022-08-19T02:49:10;21.80;69.60
53454;DHT22;49404;50.472;6.954;2022-08-19T02:51:43;21.70;69.50
53454;DHT22;49404;50.472;6.954;2022-08-19T02:54:17;21.70;69.50
53454;DHT22;49404;50.472;6.954;2022-08-19T02:56:48;21.70;69.90
53454;DHT22;49404;50.472;6.954;2022-08-19T02:59:16;21.70;69.80
53454;DHT22;49404;50.472;6.954;2022-08-19T03:01:42;21.70;69.90
53454;DHT22;49404;50.472;6.954;2022-08-19T03:04:10;21.70;70.30
53454;DHT22;49404;50.472;6.954;2022-08-19T03:06:37;21.70;69.50
53454;DHT22;49404;50.472;6.954;2022-08-19T03:09:06;21.70;69.40
53454;DHT22;49404;50.472;6.954;2022-08-19T03:11:34;21.70;69.50
53454;DHT22;49404;50.472;6.954;2022-08-19T03:14:07;21.70;69.20
53454;DHT22;49404;50.472;6.954;2022-08-19T03:16:40;21.80;69.00
53454;DHT22;49404;50.472;6.954;2022-08-19T03:19:06;21.80;69.00
53454;DHT22;49404;50.472;6.954;2022-08-19T03:21:33;21.80;68.60
53454;DHT22;49404;50.472;6.954;2022-08-19T03:24:06;21.80;68.80
53454;DHT22;49404;50.472;6.954;2022-08-19T03:26:34;21.80;68.60
53454;DHT22;49404;50.472;6.954;2022-08-19T03:29:09;21.80;68.50
53454;DHT22;49404;50.472;6.954;2022-08-19T03:31:41;21.90;68.30
53454;DHT22;49404;50.472;6.954;2022-08-19T03:34:12;21.90;67.80
53454;DHT22;49404;50.472;6.954;2022-08-19T03:36:41;22.00;67.70
53454;DHT22;49404;50.472;6.954;2022-08-19T03:39:07;22.00;67.90
53454;DHT22;49404;50.472;6.954;2022-08-19T03:41:42;22.00;67.70
53454;DHT22;49404;50.472;6.954;2022-08-19T03:44:08;22.00;67.90
53454;DHT22;49404;50.472;6.954;2022-08-19T03:46:34;22.00;67.80
53454;DHT22;49404;50.472;6.954;2022-08-19T03:49:02;22.00;68.20
53454;DHT22;49404;50.472;6.954;2022-08-19T03:51:37;22.00;67.80
53454;DHT22;49404;50.472;6.954;2022-08-19T03:54:08;22.00;68.00
53454;DHT22;49404;50.472;6.954;2022-08-19T03:56:36;22.00;68.00
53454;DHT22;49404;50.472;6.954;2022-08-19T03:59:02;22.00;68.10
53454;DHT22;49404;50.472;6.954;2022-08-19T04:01:34;21.90;67.80
53454;DHT22;49404;50.472;6.954;2022-08-19T04:04:01;21.90;68.60
53454;DHT22;49404;50.472;6.954;2022-08-19T04:06:35;21.90;68.40
53454;DHT22;49404;50.472;6.954;2022-08-19T04:09:08;21.90;68.10
53454;DHT22;49404;50.472;6.954;2022-08-19T04:11:44;21.90;68.20
53454;DHT22;49404;50.472;6.954;2022-08-19T04:14:11;21.90;68.30
53454;DHT22;49404;50.472;6.954;2022-08-19T04:16:37;21.90;68.10
53454;DHT22;49404;50.472;6.954;2022-08-19T04:19:09;21.90;68.20
53454;DHT22;49404;50.472;6.954;2022-08-19T04:21:35;21.90;68.40
53454;DHT22;49404;50.472;6.954;2022-08-19T04:24:01;21.90;68.50
53454;DHT22;49404;50.472;6.954;2022-08-19T04:26:35;21.90;68.70
53454;DHT22;49404;50.472;6.954;2022-08-19T04:29:07;21.80;68.70
53454;DHT22;49404;50.472;6.954;2022-08-19T04:31:33;21.80;69.00
53454;DHT22;49404;50.472;6.954;2022-08-19T04:34:07;21.70;68.80
53454;DHT22;49404;50.472;6.954;2022-08-19T04:36:35;21.70;69.50
53454;DHT22;49404;50.472;6.954;2022-08-19T04:39:07;21.70;69.20
53454;DHT22;49404;50.472;6.954;2022-08-19T04:41:36;21.70;69.30
53454;DHT22;49404;50.472;6.954;2022-08-19T04:44:20;21.70;69.60
53454;DHT22;49404;50.472;6.954;2022-08-19T04:46:47;21.60;70.10
53454;DHT22;49404;50.472;6.954;2022-08-19T04:49:21;21.60;70.10
53454;DHT22;49404;50.472;6.954;2022-08-19T04:51:54;21.60;70.00
53454;DHT22;49404;50.472;6.954;2022-08-19T04:54:23;21.60;69.80
53454;DHT22;49404;50.472;6.954;2022-08-19T04:56:54;21.60;69.80
53454;DHT22;49404;50.472;6.954;2022-08-19T04:59:21;21.60;70.00
53454;DHT22;49404;50.472;6.954;2022-08-19T05:01:47;21.60;69.80
53454;DHT22;49404;50.472;6.954;2022-08-19T05:04:23;21.70;69.70
53454;DHT22;49404;50.472;6.954;2022-08-19T05:06:49;21.70;70.40
53454;DHT22;49404;50.472;6.954;2022-08-19T05:09:21;21.60;69.80
53454;DHT22;49404;50.472;6.954;2022-08-19T05:11:47;21.70;70.00
53454;DHT22;49404;50.472;6.954;2022-08-19T05:14:20;21.70;70.20
53454;DHT22;49404;50.472;6.954;2022-08-19T05:16:47;21.70;69.90
53454;DHT22;49404;50.472;6.954;2022-08-19T05:19:21;21.70;70.40
53454;DHT22;49404;50.472;6.954;2022-08-19T05:22:06;21.70;70.40
53454;DHT22;49404;50.472;6.954;2022-08-19T05:24:57;21.70;70.40
53454;DHT22;49404;50.472;6.954;2022-08-19T05:27:22;21.70;70.50
53454;DHT22;49404;50.472;6.954;2022-08-19T05:29:48;21.70;70.00
53454;DHT22;49404;50.472;6.954;2022-08-19T05:32:13;21.80;70.40
53454;DHT22;49404;50.472;6.954;2022-08-19T05:34:42;21.80;70.60
53454;DHT22;49404;50.472;6.954;2022-08-19T05:37:08;21.80;71.00
53454;DHT22;49404;50.472;6.954;2022-08-19T05:39:35;21.80;70.70
53454;DHT22;49404;50.472;6.954;2022-08-19T05:42:11;21.80;70.70
53454;DHT22;49404;50.472;6.954;2022-08-19T05:44:42;21.80;70.90
53454;DHT22;49404;50.472;6.954;2022-08-19T05:47:10;21.90;71.10
53454;DHT22;49404;50.472;6.954;2022-08-19T05:49:43;21.90;71.30
53454;DHT22;49404;50.472;6.954;2022-08-19T05:52:14;21.90;71.20
53454;DHT22;49404;50.472;6.954;2022-08-19T05:54:53;21.90;71.00
53454;DHT22;49404;50.472;6.954;2022-08-19T05:57:20;21.90;70.80
53454;DHT22;49404;50.472;6.954;2022-08-19T05:59:52;21.90;71.20
53454;DHT22;49404;50.472;6.954;2022-08-19T06:02:21;22.00;70.70
53454;DHT22;49404;50.472;6.954;2022-08-19T06:04:56;22.00;70.80
53454;DHT22;49404;50.472;6.954;2022-08-19T06:07:25;22.00;70.80
53454;DHT22;49404;50.472;6.954;2022-08-19T06:09:51;22.00;70.90
53454;DHT22;49404;50.472;6.954;2022-08-19T06:12:16;22.10;71.00
53454;DHT22;49404;50.472;6.954;2022-08-19T06:14:42;22.10;70.70
53454;DHT22;49404;50.472;6.954;2022-08-19T06:17:08;22.10;70.80
53454;DHT22;49404;50.472;6.954;2022-08-19T06:19:33;22.10;71.30
53454;DHT22;49404;50.472;6.954;2022-08-19T06:22:02;22.10;71.30
53454;DHT22;49404;50.472;6.954;2022-08-19T06:24:30;22.10;71.30
53454;DHT22;49404;50.472;6.954;2022-08-19T06:26:58;22.10;71.20
53454;DHT22;49404;50.472;6.954;2022-08-19T06:29:40;22.20;71.60
53454;DHT22;49404;50.472;6.954;2022-08-19T06:32:08;22.30;71.00
53454;DHT22;49404;50.472;6.954;2022-08-19T06:34:41;22.30;70.20
53454;DHT22;49404;50.472;6.954;2022-08-19T06:37:07;22.50;70.40
53454;DHT22;49404;50.472;6.954;2022-08-19T06:39:38;22.60;70.00
53454;DHT22;49404;50.472;6.954;2022-08-19T06:42:07;22.70;70.00
53454;DHT22;49404;50.472;6.954;2022-08-19T06:44:44;22.80;70.30
53454;DHT22;49404;50.472;6.954;2022-08-19T06:47:16;22.90;70.20
53454;DHT22;49404;50.472;6.954;2022-08-19T06:49:42;23.00;69.10
53454;DHT22;49404;50.472;6.954;2022-08-19T06:52:10;23.20;69.30
53454;DHT22;49404;50.472;6.954;2022-08-19T06:54:44;23.40;69.00
53454;DHT22;49404;50.472;6.954;2022-08-19T06:57:10;23.70;68.10
53454;DHT22;49404;50.472;6.954;2022-08-19T06:59:40;24.00;67.20
53454;DHT22;49404;50.472;6.954;2022-08-19T07:02:06;24.20;66.30
53454;DHT22;49404;50.472;6.954;2022-08-19T07:04:34;24.50;65.60
53454;DHT22;49404;50.472;6.954;2022-08-19T07:07:08;24.70;64.80
53454;DHT22;49404;50.472;6.954;2022-08-19T07:09:40;24.80;64.60
53454;DHT22;49404;50.472;6.954;2022-08-19T07:12:16;24.90;62.90
53454;DHT22;49404;50.472;6.954;2022-08-19T07:14:42;25.00;63.20
53454;DHT22;49404;50.472;6.954;2022-08-19T07:17:13;25.00;63.70
53454;DHT22;49404;50.472;6.954;2022-08-19T07:19:40;25.10;63.40
53454;DHT22;49404;50.472;6.954;2022-08-19T07:22:07;25.10;63.50
53454;DHT22;49404;50.472;6.954;2022-08-19T07:24:33;25.10;63.40
53454;DHT22;49404;50.472;6.954;2022-08-19T07:27:05;25.10;63.50
53454;DHT22;49404;50.472;6.954;2022-08-19T07:29:34;25.20;63.50
53454;DHT22;49404;50.472;6.954;2022-08-19T07:32:05;25.30;63.20
53454;DHT22;49404;50.472;6.954;2022-08-19T07:34:32;25.40;63.30
53454;DHT22;49404;50.472;6.954;2022-08-19T07:37:06;25.50;63.10
53454;DHT22;49404;50.472;6.954;2022-08-19T07:39:38;25.70;62.30
53454;DHT22;49404;50.472;6.954;2022-08-19T07:42:14;25.90;62.30
53454;DHT22;49404;50.472;6.954;2022-08-19T07:44:40;26.10;61.70
53454;DHT22;49404;50.472;6.954;2022-08-19T07:47:06;26.20;61.00
53454;DHT22;49404;50.472;6.954;2022-08-19T07:49:35;26.40;60.80
53454;DHT22;49404;50.472;6.954;2022-08-19T07:52:05;26.50;60.20
53454;DHT22;49404;50.472;6.954;2022-08-19T07:54:38;26.70;60.30
53454;DHT22;49404;50.472;6.954;2022-08-19T07:57:05;26.80;59.90
53454;DHT22;49404;50.472;6.954;2022-08-19T07:59:34;26.90;59.10
53454;DHT22;49404;50.472;6.954;2022-08-19T08:02:03;27.10;58.90
53454;DHT22;49404;50.472;6.954;2022-08-19T08:04:30;27.20;58.10
53454;DHT22;49404;50.472;6.954;2022-08-19T08:07:14;27.40;58.50
53454;DHT22;49404;50.472;6.954;2022-08-19T08:09:59;27.60;57.20
53454;DHT22;49404;50.472;6.954;2022-08-19T08:12:31;27.80;56.80
53454;DHT22;49404;50.472;6.954;2022-08-19T08:15:15;27.90;56.30
53454;DHT22;49404;50.472;6.954;2022-08-19T08:17:42;28.00;55.60
53454;DHT22;49404;50.472;6.954;2022-08-19T08:20:12;28.00;55.80
53454;DHT22;49404;50.472;6.954;2022-08-19T08:22:43;28.10;55.10
53454;DHT22;49404;50.472;6.954;2022-08-19T08:25:28;28.20;55.50
53454;DHT22;49404;50.472;6.954;2022-08-19T08:27:54;28.30;55.30
53454;DHT22;49404;50.472;6.954;2022-08-19T08:30:25;28.50;54.50
53454;DHT22;49404;50.472;6.954;2022-08-19T08:32:51;28.60;54.20
53454;DHT22;49404;50.472;6.954;2022-08-19T08:35:23;28.60;54.20
53454;DHT22;49404;50.472;6.954;2022-08-19T08:37:51;28.70;53.80
53454;DHT22;49404;50.472;6.954;2022-08-19T08:40:27;28.80;54.30
53454;DHT22;49404;50.472;6.954;2022-08-19T08:43:30;29.00;53.70
53454;DHT22;49404;50.472;6.954;2022-08-19T08:46:07;29.10;53.00
53454;DHT22;49404;50.472;6.954;2022-08-19T08:49:11;29.00;53.10
53454;DHT22;49404;50.472;6.954;2022-08-19T08:54:55;29.00;53.10
53454;DHT22;49404;50.472;6.954;2022-08-19T08:57:29;29.10;53.00
53454;DHT22;49404;50.472;6.954;2022-08-19T09:00:06;29.20;52.90
53454;DHT22;49404;50.472;6.954;2022-08-19T09:02:38;29.40;53.20
53454;DHT22;49404;50.472;6.954;2022-08-19T09:05:06;29.70;52.40
53454;DHT22;49404;50.472;6.954;2022-08-19T09:10:54;30.20;51.60
53454;DHT22;49404;50.472;6.954;2022-08-19T09:13:44;30.50;51.50
53454;DHT22;49404;50.472;6.954;2022-08-19T09:16:19;30.70;50.90
53454;DHT22;49404;50.472;6.954;2022-08-19T09:18:56;30.90;50.50
53454;DHT22;49404;50.472;6.954;2022-08-19T09:21:30;31.10;49.60
53454;DHT22;49404;50.472;6.954;2022-08-19T09:24:02;31.20;49.50
53454;DHT22;49404;50.472;6.954;2022-08-19T09:26:29;31.40;48.60
53454;DHT22;49404;50.472;6.954;2022-08-19T09:28:58;31.50;48.30
53454;DHT22;49404;50.472;6.954;2022-08-19T09:31:28;31.60;48.60
53454;DHT22;49404;50.472;6.954;2022-08-19T09:33:58;31.70;48.30
53454;DHT22;49404;50.472;6.954;2022-08-19T09:36:26;31.70;47.70
53454;DHT22;49404;50.472;6.954;2022-08-19T09:38:52;31.80;47.90
53454;DHT22;49404;50.472;6.954;2022-08-19T09:41:23;31.80;47.50
53454;DHT22;49404;50.472;6.954;2022-08-19T09:43:52;32.00;47.10
53454;DHT22;49404;50.472;6.954;2022-08-19T09:46:25;32.00;46.70
53454;DHT22;49404;50.472;6.954;2022-08-19T09:48:54;32.10;46.90
53454;DHT22;49404;50.472;6.954;2022-08-19T09:51:26;32.10;46.90
53454;DHT22;49404;50.472;6.954;2022-08-19T09:53:54;32.20;46.70
53454;DHT22;49404;50.472;6.954;2022-08-19T09:56:27;32.30;46.40
53454;DHT22;49404;50.472;6.954;2022-08-19T09:59:01;32.50;46.10
53454;DHT22;49404;50.472;6.954;2022-08-19T10:01:30;32.50;45.70
53454;DHT22;49404;50.472;6.954;2022-08-19T10:04:03;32.50;45.60
53454;DHT22;49404;50.472;6.954;2022-08-19T10:06:41;32.50;45.40
53454;DHT22;49404;50.472;6.954;2022-08-19T10:09:10;32.60;45.30
53454;DHT22;49404;50.472;6.954;2022-08-19T10:11:39;32.60;44.90
53454;DHT22;49404;50.472;6.954;2022-08-19T10:14:06;32.70;45.00
53454;DHT22;49404;50.472;6.954;2022-08-19T10:16:36;32.80;44.90
53454;DHT22;49404;50.472;6.954;2022-08-19T10:19:02;32.80;44.80
53454;DHT22;49404;50.472;6.954;2022-08-19T10:21:35;32.80;44.20
53454;DHT22;49404;50.472;6.954;2022-08-19T10:24:04;32.90;44.70
53454;DHT22;49404;50.472;6.954;2022-08-19T10:26:37;33.00;44.50
53454;DHT22;49404;50.472;6.954;2022-08-19T10:29:04;33.10;44.50
53454;DHT22;49404;50.472;6.954;2022-08-19T10:31:34;33.20;44.20
53454;DHT22;49404;50.472;6.954;2022-08-19T10:34:00;33.30;43.90
53454;DHT22;49404;50.472;6.954;2022-08-19T10:36:36;33.40;43.50
53454;DHT22;49404;50.472;6.954;2022-08-19T10:39:12;33.40;43.70
53454;DHT22;49404;50.472;6.954;2022-08-19T10:41:39;33.40;43.40
53454;DHT22;49404;50.472;6.954;2022-08-19T10:44:12;33.40;43.80
53454;DHT22;49404;50.472;6.954;2022-08-19T10:46:46;33.20;43.80
53454;DHT22;49404;50.472;6.954;2022-08-19T10:49:14;33.10;44.10
53454;DHT22;49404;50.472;6.954;2022-08-19T10:51:40;32.90;43.90
53454;DHT22;49404;50.472;6.954;2022-08-19T10:54:24;32.70;43.70
53454;DHT22;49404;50.472;6.954;2022-08-19T10:57:10;32.50;43.90
53454;DHT22;49404;50.472;6.954;2022-08-19T10:59:36;32.30;44.20
53454;DHT22;49404;50.472;6.954;2022-08-19T11:02:04;32.20;44.10
53454;DHT22;49404;50.472;6.954;2022-08-19T11:04:36;32.20;44.50
53454;DHT22;49404;50.472;6.954;2022-08-19T11:07:04;32.10;44.00
53454;DHT22;49404;50.472;6.954;2022-08-19T11:09:30;32.00;44.10
53454;DHT22;49404;50.472;6.954;2022-08-19T11:12:03;32.00;44.40
53454;DHT22;49404;50.472;6.954;2022-08-19T11:14:29;31.90;44.60
53454;DHT22;49404;50.472;6.954;2022-08-19T11:17:04;31.90;45.50
53454;DHT22;49404;50.472;6.954;2022-08-19T11:19:30;32.00;44.80
53454;DHT22;49404;50.472;6.954;2022-08-19T11:21:59;32.10;43.90
53454;DHT22;49404;50.472;6.954;2022-08-19T11:24:27;32.10;43.80
53454;DHT22;49404;50.472;6.954;2022-08-19T11:26:55;32.10;43.90
53454;DHT22;49404;50.472;6.954;2022-08-19T11:29:26;32.00;43.30
53454;DHT22;49404;50.472;6.954;2022-08-19T11:32:04;32.00;43.60
53454;DHT22;49404;50.472;6.954;2022-08-19T11:34:37;31.90;43.60
53454;DHT22;49404;50.472;6.954;2022-08-19T11:37:05;32.00;43.10
53454;DHT22;49404;50.472;6.954;2022-08-19T11:39:35;32.10;42.90
53454;DHT22;49404;50.472;6.954;2022-08-19T11:42:04;32.00;42.80
53454;DHT22;49404;50.472;6.954;2022-08-19T11:44:48;32.00;43.10
53454;DHT22;49404;50.472;6.954;2022-08-19T11:47:15;31.90;43.50
53454;DHT22;49404;50.472;6.954;2022-08-19T11:49:40;32.00;43.70
53454;DHT22;49404;50.472;6.954;2022-08-19T11:52:10;32.00;43.20
53454;DHT22;49404;50.472;6.954;2022-08-19T11:54:36;32.10;42.90
53454;DHT22;49404;50.472;6.954;2022-08-19T11:57:03;32.10;42.60
53454;DHT22;49404;50.472;6.954;2022-08-19T11:59:29;32.10;42.90
53454;DHT22;49404;50.472;6.954;2022-08-19T12:02:01;32.00;42.70
53454;DHT22;49404;50.472;6.954;2022-08-19T12:04:26;31.90;42.70
53454;DHT22;49404;50.472;6.954;2022-08-19T12:06:52;31.80;42.70
53454;DHT22;49404;50.472;6.954;2022-08-19T12:09:18;31.80;43.10
53454;DHT22;49404;50.472;6.954;2022-08-19T12:11:46;31.80;43.90
53454;DHT22;49404;50.472;6.954;2022-08-19T12:14:13;31.80;43.50
53454;DHT22;49404;50.472;6.954;2022-08-19T12:16:40;31.90;43.20
53454;DHT22;49404;50.472;6.954;2022-08-19T12:19:12;32.00;42.90
53454;DHT22;49404;50.472;6.954;2022-08-19T12:21:40;32.10;42.30
53454;DHT22;49404;50.472;6.954;2022-08-19T12:24:10;32.10;42.40
53454;DHT22;49404;50.472;6.954;2022-08-19T12:26:38;32.00;42.20
53454;DHT22;49404;50.472;6.954;2022-08-19T12:29:04;32.00;41.80
53454;DHT22;49404;50.472;6.954;2022-08-19T12:31:30;32.00;42.10
53454;DHT22;49404;50.472;6.954;2022-08-19T12:33:58;31.90;42.10
53454;DHT22;49404;50.472;6.954;2022-08-19T12:36:24;32.00;42.30
53454;DHT22;49404;50.472;6.954;2022-08-19T12:38:51;32.10;41.60
53454;DHT22;49404;50.472;6.954;2022-08-19T12:41:21;32.10;41.00
53454;DHT22;49404;50.472;6.954;2022-08-19T12:43:48;32.20;40.60
53454;DHT22;49404;50.472;6.954;2022-08-19T12:46:16;32.10;40.20
53454;DHT22;49404;50.472;6.954;2022-08-19T12:48:48;32.10;40.90
53454;DHT22;49404;50.472;6.954;2022-08-19T12:51:22;32.10;40.60
53454;DHT22;49404;50.472;6.954;2022-08-19T12:53:50;32.00;40.20
53454;DHT22;49404;50.472;6.954;2022-08-19T12:56:16;32.00;40.80
53454;DHT22;49404;50.472;6.954;2022-08-19T12:58:49;32.00;41.30
53454;DHT22;49404;50.472;6.954;2022-08-19T13:01:16;31.80;40.80
53454;DHT22;49404;50.472;6.954;2022-08-19T13:03:51;31.80;41.50
53454;DHT22;49404;50.472;6.954;2022-08-19T13:06:26;31.70;42.20
53454;DHT22;49404;50.472;6.954;2022-08-19T13:08:52;31.60;41.80
53454;DHT22;49404;50.472;6.954;2022-08-19T13:11:22;31.60;41.20
53454;DHT22;49404;50.472;6.954;2022-08-19T13:13:50;31.60;41.70
53454;DHT22;49404;50.472;6.954;2022-08-19T13:16:17;31.50;42.00
53454;DHT22;49404;50.472;6.954;2022-08-19T13:18:49;31.50;41.60
53454;DHT22;49404;50.472;6.954;2022-08-19T13:21:23;31.50;41.70
53454;DHT22;49404;50.472;6.954;2022-08-19T13:23:49;30.90;39.70
53454;DHT22;49404;50.472;6.954;2022-08-19T13:26:15;31.40;40.40
53454;DHT22;49404;50.472;6.954;2022-08-19T13:28:46;31.30;39.90
53454;DHT22;49404;50.472;6.954;2022-08-19T13:31:40;31.30;39.70
53454;DHT22;49404;50.472;6.954;2022-08-19T13:34:31;31.20;39.40
53454;DHT22;49404;50.472;6.954;2022-08-19T13:37:04;31.20;40.60
53454;DHT22;49404;50.472;6.954;2022-08-19T13:39:34;31.20;41.10
53454;DHT22;49404;50.472;6.954;2022-08-19T13:42:01;31.10;41.50
53454;DHT22;49404;50.472;6.954;2022-08-19T13:44:28;31.00;41.40
53454;DHT22;49404;50.472;6.954;2022-08-19T13:47:02;31.00;41.90
53454;DHT22;49404;50.472;6.954;2022-08-19T13:49:35;30.90;42.60
53454;DHT22;49404;50.472;6.954;2022-08-19T13:56:53;29.30;66.30
53454;DHT22;49404;50.472;6.954;2022-08-19T13:59:22;30.10;53.80
53454;DHT22;49404;50.472;6.954;2022-08-19T14:01:48;30.70;42.30
53454;DHT22;49404;50.472;6.954;2022-08-19T14:04:13;30.70;41.70
53454;DHT22;49404;50.472;6.954;2022-08-19T14:06:39;30.70;41.40
53454;DHT22;49404;50.472;6.954;2022-08-19T14:09:05;30.70;41.80
53454;DHT22;49404;50.472;6.954;2022-08-19T14:11:34;30.60;41.50
53454;DHT22;49404;50.472;6.954;2022-08-19T14:13:59;30.60;41.20
53454;DHT22;49404;50.472;6.954;2022-08-19T14:16:25;30.60;41.30
53454;DHT22;49404;50.472;6.954;2022-08-19T14:18:52;30.50;40.80
53454;DHT22;49404;50.472;6.954;2022-08-19T14:21:22;30.50;41.30
53454;DHT22;49404;50.472;6.954;2022-08-19T14:23:50;30.40;41.50
53454;DHT22;49404;50.472;6.954;2022-08-19T14:26:17;30.40;41.60
53454;DHT22;49404;50.472;6.954;2022-08-19T14:28:50;30.40;41.40
53454;DHT22;49404;50.472;6.954;2022-08-19T14:31:18;30.40;41.20
53454;DHT22;49404;50.472;6.954;2022-08-19T14:33:53;30.40;41.20
53454;DHT22;49404;50.472;6.954;2022-08-19T14:36:27;30.40;41.60
53454;DHT22;49404;50.472;6.954;2022-08-19T14:38:53;30.40;41.60
53454;DHT22;49404;50.472;6.954;2022-08-19T14:41:23;30.30;42.00
53454;DHT22;49404;50.472;6.954;2022-08-19T14:43:51;29.90;41.50
53454;DHT22;49404;50.472;6.954;2022-08-19T14:46:25;31.40;42.40
53454;DHT22;49404;50.472;6.954;2022-08-19T14:48:52;30.60;53.60
53454;DHT22;49404;50.472;6.954;2022-08-19T14:51:24;30.50;41.60
53454;DHT22;49404;50.472;6.954;2022-08-19T14:53:50;30.20;41.50
53454;DHT22;49404;50.472;6.954;2022-08-19T14:56:21;30.10;41.10
53454;DHT22;49404;50.472;6.954;2022-08-19T14:58:48;30.10;41.10
53454;DHT22;49404;50.472;6.954;2022-08-19T15:01:17;30.00;40.90
53454;DHT22;49404;50.472;6.954;2022-08-19T15:03:49;30.00;41.40
53454;DHT22;49404;50.472;6.954;2022-08-19T15:06:15;30.20;57.30
53454;DHT22;49404;50.472;6.954;2022-08-19T15:08:41;29.80;41.20
53454;DHT22;49404;50.472;6.954;2022-08-19T15:11:15;29.80;41.40
53454;DHT22;49404;50.472;6.954;2022-08-19T15:13:42;29.70;42.30
53454;DHT22;49404;50.472;6.954;2022-08-19T15:16:13;29.70;41.80
53454;DHT22;49404;50.472;6.954;2022-08-19T15:18:52;29.70;42.30
53454;DHT22;49404;50.472;6.954;2022-08-19T15:21:25;29.90;59.80
53454;DHT22;49404;50.472;6.954;2022-08-19T15:23:54;29.60;42.70
53454;DHT22;49404;50.472;6.954;2022-08-19T15:26:23;29.70;42.40
53454;DHT22;49404;50.472;6.954;2022-08-19T15:28:50;29.60;42.10
53454;DHT22;49404;50.472;6.954;2022-08-19T15:31:19;29.60;42.10
53454;DHT22;49404;50.472;6.954;2022-08-19T15:33:48;29.60;42.50
53454;DHT22;49404;50.472;6.954;2022-08-19T15:36:14;29.60;42.10
53454;DHT22;49404;50.472;6.954;2022-08-19T15:38:41;29.60;42.20
53454;DHT22;49404;50.472;6.954;2022-08-19T15:41:26;29.50;41.70
53454;DHT22;49404;50.472;6.954;2022-08-19T15:44:04;29.50;41.30
53454;DHT22;49404;50.472;6.954;2022-08-19T15:46:37;29.50;41.20
53454;DHT22;49404;50.472;6.954;2022-08-19T15:49:04;29.50;41.30
53454;DHT22;49404;50.472;6.954;2022-08-19T15:51:36;29.50;41.80
53454;DHT22;49404;50.472;6.954;2022-08-19T15:54:06;29.40;41.50
53454;DHT22;49404;50.472;6.954;2022-08-19T15:56:35;29.40;41.90
53454;DHT22;49404;50.472;6.954;2022-08-19T15:59:26;29.40;42.10
53454;DHT22;49404;50.472;6.954;2022-08-19T16:02:15;29.40;41.80
53454;DHT22;49404;50.472;6.954;2022-08-19T16:04:59;29.30;42.30
53454;DHT22;49404;50.472;6.954;2022-08-19T16:07:50;29.20;42.60